Time;durP1;ratioP1;P1;durP2;ratioP2;P2;SDS_P1;SDS_P2;PMS_P1;PMS_P2;Temp;Humidity;BMP_temperature;BMP_pressure;BME280_temperature;BME280_humidity;BME280_pressure;Samples;Min_cycle;Max_cycle;Signal;HPM_P1;HPM_P2
2021/08/26 00:01:01;;;;;;;8.70;5.13;;;16.60;99.90;;;;;;5013964;28;20010;-81
2021/08/26 00:06:18;;;;;;;9.00;4.97;;;15.50;99.90;;;;;;5019879;28;20272;-82
2021/08/26 00:08:45;;;;;;;6.78;4.50;;;15.30;99.90;;;;;;5022293;28;20468;-82
2021/08/26 00:11:12;;;;;;;8.02;4.90;;;15.40;99.90;;;;;;5006405;28;20069;-80
2021/08/26 00:13:38;;;;;;;8.40;4.60;;;15.40;99.90;;;;;;5006171;28;20030;-82
2021/08/26 00:16:05;;;;;;;9.63;4.93;;;15.50;99.90;;;;;;5006620;28;20111;-80
2021/08/26 00:18:31;;;;;;;9.23;4.68;;;15.40;99.90;;;;;;4998824;28;20444;-79
2021/08/26 00:20:56;;;;;;;7.85;4.32;;;15.40;99.90;;;;;;5005340;28;20029;-82
2021/08/26 00:23:22;;;;;;;9.95;5.18;;;15.30;99.90;;;;;;5007009;28;20117;-79
2021/08/26 00:25:49;;;;;;;9.38;5.15;;;15.20;99.90;;;;;;5006983;28;20041;-80
2021/08/26 00:28:15;;;;;;;9.30;5.57;;;15.20;99.90;;;;;;5023093;28;20022;-82
2021/08/26 00:30:41;;;;;;;8.75;5.10;;;15.20;99.90;;;;;;5021249;28;20026;-79
2021/08/26 00:33:07;;;;;;;8.50;4.72;;;15.20;99.90;;;;;;5006082;28;20030;-80
2021/08/26 00:35:32;;;;;;;8.57;5.30;;;15.20;99.90;;;;;;5005567;28;20026;-81
2021/08/26 00:37:58;;;;;;;13.02;5.30;;;15.20;99.90;;;;;;5004217;28;20022;-80
2021/08/26 00:40:24;;;;;;;8.93;4.85;;;15.10;99.90;;;;;;5022067;28;20460;-79
2021/08/26 00:42:50;;;;;;;7.82;4.75;;;15.10;99.90;;;;;;5005495;28;20037;-81
2021/08/26 00:45:15;;;;;;;9.32;4.90;;;17.10;99.90;;;;;;5005719;28;20034;-82
2021/08/26 00:47:46;;;;;;;9.63;5.25;;;15.00;99.90;;;;;;5021048;28;20065;-79
2021/08/26 00:50:12;;;;;;;9.20;4.80;;;15.00;99.90;;;;;;4999690;28;20022;-76
2021/08/26 00:52:39;;;;;;;8.50;4.72;;;15.00;99.90;;;;;;5022870;28;20056;-78
2021/08/26 00:55:09;;;;;;;10.23;4.60;;;15.00;99.90;;;;;;4993770;28;20464;-78
2021/08/26 00:57:35;;;;;;;9.70;4.70;;;15.00;99.90;;;;;;5003922;28;20022;-78
2021/08/26 01:00:04;;;;;;;9.30;4.68;;;14.90;99.90;;;;;;5004257;28;20095;-83
2021/08/26 01:02:44;;;;;;;10.40;4.82;;;14.90;99.90;;;;;;5002986;28;20034;-79
2021/08/26 01:05:20;;;;;;;7.93;4.90;;;14.90;99.90;;;;;;5004383;28;20566;-84
2021/08/26 01:08:08;;;;;;;8.18;4.32;;;14.90;99.90;;;;;;5018697;28;20025;-78
2021/08/26 01:10:35;;;;;;;10.85;4.80;;;14.90;99.90;;;;;;5000140;28;20021;-80
2021/08/26 01:13:02;;;;;;;10.38;4.60;;;15.20;99.90;;;;;;5005763;28;20049;-79
2021/08/26 01:15:28;;;;;;;8.85;4.80;;;14.80;99.90;;;;;;5004412;28;20022;-84
2021/08/26 01:17:54;;;;;;;8.75;4.97;;;15.70;99.90;;;;;;4999544;28;20050;-79
2021/08/26 01:20:21;;;;;;;9.90;4.85;;;;;;;;;;5007741;28;20038;-80
2021/08/26 01:22:46;;;;;;;8.35;5.00;;;14.80;99.90;;;;;;5005614;28;20022;-80
2021/08/26 01:25:17;;;;;;;10.40;5.22;;;14.70;99.90;;;;;;5023106;28;20034;-81
2021/08/26 01:27:46;;;;;;;8.00;4.88;;;15.40;99.90;;;;;;5020296;28;20030;-79
2021/08/26 01:30:17;;;;;;;8.88;4.90;;;14.70;99.90;;;;;;5002559;28;20041;-79
2021/08/26 01:32:44;;;;;;;9.43;4.72;;;14.70;99.90;;;;;;5000207;28;20045;-79
2021/08/26 01:35:12;;;;;;;8.48;4.60;;;15.50;99.90;;;;;;5003459;28;20045;-80
2021/08/26 01:37:41;;;;;;;7.20;4.38;;;14.60;99.90;;;;;;4986886;28;20018;-79
2021/08/26 01:40:08;;;;;;;8.85;4.85;;;14.60;99.90;;;;;;5002621;28;20026;-79
2021/08/26 01:42:35;;;;;;;8.80;5.22;;;14.60;99.90;;;;;;5019809;28;20041;-82
2021/08/26 01:45:01;;;;;;;9.23;5.00;;;14.50;99.90;;;;;;5003231;28;20025;-78
2021/08/26 01:47:27;;;;;;;9.35;4.70;;;14.50;99.90;;;;;;5003927;28;20049;-79
2021/08/26 01:49:53;;;;;;;9.90;4.82;;;14.50;99.90;;;;;;4994213;28;20025;-79
2021/08/26 01:52:20;;;;;;;8.40;4.65;;;14.90;99.90;;;;;;5001574;28;20060;-81
2021/08/26 01:54:59;;;;;;;10.15;4.97;;;14.50;99.90;;;;;;5002444;28;20030;-79
2021/08/26 01:57:26;;;;;;;9.55;5.20;;;14.50;99.90;;;;;;5020875;28;20026;-83
2021/08/26 01:59:53;;;;;;;9.40;4.90;;;14.60;99.90;;;;;;5002924;28;20480;-80
2021/08/26 02:02:19;;;;;;;8.13;4.53;;;14.50;99.90;;;;;;5007152;28;20115;-82
2021/08/26 02:04:45;;;;;;;7.60;4.13;;;14.60;99.90;;;;;;5021242;28;20491;-79
2021/08/26 02:07:11;;;;;;;8.43;5.28;;;15.50;99.90;;;;;;5004476;28;20033;-78
2021/08/26 02:09:37;;;;;;;8.45;5.25;;;14.90;99.90;;;;;;5003459;28;20029;-81
2021/08/26 02:12:03;;;;;;;9.60;4.57;;;14.30;99.90;;;;;;5000082;28;20026;-77
2021/08/26 02:14:28;;;;;;;7.70;5.10;;;14.30;99.90;;;;;;5003861;28;20065;-79
2021/08/26 02:16:54;;;;;;;8.77;5.03;;;14.20;99.90;;;;;;5002921;28;20025;-79
2021/08/26 02:19:20;;;;;;;9.90;5.10;;;14.20;99.90;;;;;;5027068;28;20033;-82
2021/08/26 02:21:45;;;;;;;9.48;5.20;;;14.20;99.90;;;;;;5004384;28;20026;-80
2021/08/26 02:24:11;;;;;;;7.65;4.65;;;14.20;99.90;;;;;;5000564;28;20033;-80
2021/08/26 02:26:37;;;;;;;12.18;6.22;;;15.60;99.90;;;;;;5014243;28;20026;-79
2021/08/26 02:29:04;;;;;;;10.93;5.28;;;14.20;99.90;;;;;;5020812;28;20033;-83
2021/08/26 02:31:30;;;;;;;10.57;5.68;;;14.20;99.90;;;;;;5002013;28;20033;-82
2021/08/26 02:33:56;;;;;;;10.50;5.20;;;14.20;99.90;;;;;;5003044;28;20049;-82
2021/08/26 02:36:22;;;;;;;10.95;5.03;;;14.20;99.90;;;;;;5003805;28;20116;-79
2021/08/26 02:38:48;;;;;;;9.90;4.63;;;14.20;99.90;;;;;;5002593;28;20436;-83
2021/08/26 02:41:14;;;;;;;10.77;5.00;;;14.10;99.90;;;;;;5003389;28;20026;-79
2021/08/26 02:43:40;;;;;;;10.55;6.03;;;14.20;99.90;;;;;;5002359;28;20089;-80
2021/08/26 02:46:06;;;;;;;11.75;5.30;;;14.20;99.90;;;;;;5001778;28;20049;-81
2021/08/26 02:48:32;;;;;;;8.82;4.78;;;14.20;99.90;;;;;;5003232;28;20049;-82
2021/08/26 02:50:57;;;;;;;9.73;4.88;;;14.10;99.90;;;;;;5020771;28;20024;-82
2021/08/26 02:53:23;;;;;;;10.80;6.18;;;14.90;99.90;;;;;;5004897;28;20030;-83
2021/08/26 02:55:49;;;;;;;10.02;5.05;;;14.10;99.90;;;;;;5019036;28;20026;-80
2021/08/26 02:58:14;;;;;;;10.02;5.13;;;14.20;99.90;;;;;;5007273;28;20045;-82
2021/08/26 03:00:40;;;;;;;9.55;4.80;;;15.00;99.90;;;;;;4997517;28;20492;-80
2021/08/26 03:03:06;;;;;;;9.98;5.25;;;16.30;99.90;;;;;;5005711;28;20034;-80
2021/08/26 03:05:31;;;;;;;9.48;5.18;;;14.10;99.90;;;;;;5002689;28;20496;-80
2021/08/26 03:07:57;;;;;;;12.80;5.18;;;14.10;99.90;;;;;;5004025;28;20029;-80
2021/08/26 03:10:28;;;;;;;9.25;5.03;;;14.10;99.90;;;;;;5011483;28;20079;-81
2021/08/26 03:12:54;;;;;;;11.13;5.43;;;14.60;99.90;;;;;;5004001;28;20029;-81
2021/08/26 03:15:20;;;;;;;12.13;6.35;;;14.10;99.90;;;;;;5004801;28;20029;-80
2021/08/26 03:17:46;;;;;;;12.07;6.35;;;14.10;99.90;;;;;;5021390;28;20021;-80
2021/08/26 03:20:12;;;;;;;12.80;6.45;;;14.10;99.90;;;;;;5004294;28;20025;-80
2021/08/26 03:22:38;;;;;;;15.38;6.90;;;;;;;;;;5022907;28;20028;-83
2021/08/26 03:25:05;;;;;;;12.10;7.30;;;14.20;99.90;;;;;;5002343;28;20026;-78
2021/08/26 03:27:31;;;;;;;13.93;7.68;;;14.20;99.90;;;;;;5002554;28;20304;-80
2021/08/26 03:29:57;;;;;;;11.15;6.68;;;14.20;99.90;;;;;;4999981;28;20033;-78
2021/08/26 03:32:23;;;;;;;11.65;6.57;;;14.30;99.90;;;;;;4999706;28;20029;-79
2021/08/26 03:34:48;;;;;;;10.77;6.82;;;15.80;99.90;;;;;;5002833;28;20037;-83
2021/08/26 03:37:14;;;;;;;12.98;6.95;;;14.40;99.90;;;;;;5019011;28;20038;-80
2021/08/26 03:39:40;;;;;;;14.13;8.40;;;14.40;99.90;;;;;;5002027;28;20026;-79
2021/08/26 03:42:06;;;;;;;11.93;6.43;;;15.30;99.90;;;;;;4997166;28;20024;-81
2021/08/26 03:44:32;;;;;;;15.63;7.20;;;14.50;99.90;;;;;;5001961;28;20045;-76
2021/08/26 03:46:57;;;;;;;16.17;7.97;;;15.10;99.90;;;;;;5019228;28;20030;-79
2021/08/26 03:49:23;;;;;;;15.45;7.97;;;15.30;99.90;;;;;;4997831;28;20022;-79
2021/08/26 03:51:49;;;;;;;13.70;7.00;;;14.50;99.90;;;;;;4999784;28;20030;-81
2021/08/26 03:54:14;;;;;;;13.48;6.85;;;14.50;99.90;;;;;;5002365;28;20060;-80
2021/08/26 03:56:40;;;;;;;15.63;7.88;;;16.80;99.90;;;;;;5019454;28;20077;-82
2021/08/26 03:59:06;;;;;;;13.50;7.57;;;14.50;99.90;;;;;;5002596;28;20053;-79
2021/08/26 04:01:32;;;;;;;15.80;7.50;;;14.40;99.90;;;;;;5001756;28;20393;-79
2021/08/26 04:03:58;;;;;;;13.50;7.88;;;14.40;99.90;;;;;;5001852;28;20091;-79
2021/08/26 04:06:24;;;;;;;14.60;8.05;;;14.40;99.90;;;;;;5002231;28;20022;-79
2021/08/26 04:08:49;;;;;;;14.98;7.57;;;16.00;99.90;;;;;;4998286;28;20042;-79
2021/08/26 04:11:15;;;;;;;16.30;7.60;;;14.40;99.90;;;;;;4990905;28;20117;-80
2021/08/26 04:13:41;;;;;;;13.73;7.85;;;14.40;99.90;;;;;;5017340;28;20026;-79
2021/08/26 04:16:07;;;;;;;13.05;7.82;;;14.50;99.90;;;;;;5020248;28;20029;-81
2021/08/26 04:18:32;;;;;;;14.15;8.75;;;14.40;99.90;;;;;;5002687;28;20026;-81
2021/08/26 04:20:58;;;;;;;14.45;8.18;;;14.30;99.90;;;;;;5000397;28;20041;-77
2021/08/26 04:23:23;;;;;;;13.25;7.57;;;15.40;99.90;;;;;;5000588;28;20022;-77
2021/08/26 04:25:49;;;;;;;15.23;9.13;;;14.30;99.90;;;;;;5002479;28;20036;-79
2021/08/26 04:28:15;;;;;;;14.55;8.00;;;14.30;99.90;;;;;;5019334;28;20037;-82
2021/08/26 04:30:40;;;;;;;14.38;8.50;;;14.40;99.90;;;;;;4992669;28;20030;-79
2021/08/26 04:33:06;;;;;;;16.38;9.15;;;14.40;99.90;;;;;;4998947;28;20022;-82
2021/08/26 04:35:32;;;;;;;14.95;8.93;;;14.40;99.90;;;;;;5000771;28;20125;-79
2021/08/26 04:37:58;;;;;;;14.20;8.73;;;14.50;99.90;;;;;;5000627;28;20026;-77
2021/08/26 04:40:23;;;;;;;15.98;8.95;;;14.50;99.90;;;;;;4993382;28;20049;-77
2021/08/26 04:42:49;;;;;;;15.70;9.07;;;14.40;99.90;;;;;;4998130;28;20022;-81
2021/08/26 04:45:15;;;;;;;15.18;9.55;;;15.00;99.90;;;;;;5001280;28;20026;-78
2021/08/26 04:47:41;;;;;;;15.77;8.77;;;14.40;99.90;;;;;;4998872;28;20491;-79
2021/08/26 04:50:07;;;;;;;18.00;9.13;;;14.40;99.90;;;;;;4991941;28;20034;-79
2021/08/26 04:52:33;;;;;;;13.50;8.88;;;14.50;99.90;;;;;;5002862;28;20558;-79
2021/08/26 04:54:59;;;;;;;15.20;9.07;;;14.50;99.90;;;;;;5004855;28;20034;-78
2021/08/26 04:57:24;;;;;;;16.00;9.40;;;14.40;99.90;;;;;;5006233;28;20030;-80
2021/08/26 04:59:50;;;;;;;14.68;9.23;;;14.50;99.90;;;;;;5023852;28;20029;-80
2021/08/26 05:02:16;;;;;;;17.95;9.93;;;14.50;99.90;;;;;;5005168;28;20109;-82
2021/08/26 05:04:47;;;;;;;18.00;11.00;;;14.50;99.90;;;;;;5023379;28;20155;-79
2021/08/26 05:07:13;;;;;;;19.67;10.05;;;15.60;99.90;;;;;;5022836;28;20033;-79
2021/08/26 05:09:38;;;;;;;20.70;10.30;;;14.60;99.90;;;;;;5005715;28;20054;-83
2021/08/26 05:12:06;;;;;;;21.10;10.43;;;16.10;99.90;;;;;;5022443;28;20026;-78
2021/08/26 05:14:32;;;;;;;21.38;10.25;;;14.60;99.90;;;;;;5004543;28;20026;-80
2021/08/26 05:16:58;;;;;;;19.25;11.63;;;15.10;99.90;;;;;;4997226;28;20026;-79
2021/08/26 05:19:25;;;;;;;19.38;10.50;;;14.50;99.90;;;;;;5004976;28;20044;-78
2021/08/26 05:21:51;;;;;;;17.13;10.68;;;14.70;99.90;;;;;;4998689;28;20480;-82
2021/08/26 05:24:17;;;;;;;19.20;11.27;;;14.50;99.90;;;;;;5006418;28;20033;-78
2021/08/26 05:26:43;;;;;;;16.80;10.27;;;14.60;99.90;;;;;;5006948;28;20030;-78
2021/08/26 05:29:09;;;;;;;20.35;11.07;;;14.60;99.90;;;;;;5005369;28;20030;-84
2021/08/26 05:31:34;;;;;;;15.55;10.10;;;14.60;99.90;;;;;;5005058;28;20089;-84
2021/08/26 05:34:00;;;;;;;16.58;10.52;;;14.70;99.90;;;;;;5005250;28;20061;-79
2021/08/26 05:36:25;;;;;;;20.08;10.65;;;14.60;99.90;;;;;;5004867;28;20029;-82
2021/08/26 05:38:51;;;;;;;19.45;11.50;;;14.70;99.90;;;;;;5004377;28;20026;-83
2021/08/26 05:41:17;;;;;;;17.83;10.25;;;14.60;99.90;;;;;;4999594;28;20503;-80
2021/08/26 05:43:42;;;;;;;20.92;11.93;;;14.50;99.90;;;;;;5004223;28;20029;-80
2021/08/26 05:46:08;;;;;;;19.52;11.02;;;15.50;99.90;;;;;;5004931;28;20025;-81
2021/08/26 05:48:34;;;;;;;19.63;10.27;;;14.60;99.90;;;;;;5010835;28;20029;-82
2021/08/26 05:51:00;;;;;;;18.35;10.10;;;14.70;99.90;;;;;;5003939;28;20076;-81
2021/08/26 05:53:26;;;;;;;16.17;9.75;;;15.40;99.90;;;;;;5024047;28;20037;-83
2021/08/26 05:55:51;;;;;;;17.30;10.23;;;14.70;99.90;;;;;;5006042;28;20411;-81
2021/08/26 05:58:17;;;;;;;17.52;9.95;;;14.80;99.90;;;;;;5003405;28;20022;-80
2021/08/26 06:00:43;;;;;;;19.98;10.90;;;14.70;99.90;;;;;;5002209;28;20073;-80
2021/08/26 06:03:09;;;;;;;20.08;10.90;;;14.80;99.90;;;;;;5001207;28;20057;-79
2021/08/26 06:05:34;;;;;;;18.63;11.50;;;14.90;99.90;;;;;;4998245;28;20030;-79
2021/08/26 06:08:00;;;;;;;15.88;9.65;;;;;;;;;;4999563;28;20038;-83
2021/08/26 06:10:26;;;;;;;17.38;9.35;;;15.00;99.90;;;;;;5017788;28;20030;-80
2021/08/26 06:12:52;;;;;;;17.30;9.20;;;14.90;99.90;;;;;;5000405;28;20631;-81
2021/08/26 06:15:18;;;;;;;17.17;9.55;;;14.90;99.90;;;;;;5001843;28;20029;-83
2021/08/26 06:17:43;;;;;;;17.30;8.85;;;15.00;99.90;;;;;;5002949;28;20033;-80
2021/08/26 06:20:12;;;;;;;14.27;8.95;;;15.00;99.90;;;;;;5003553;28;20018;-79
2021/08/26 06:22:39;;;;;;;13.75;8.57;;;16.90;99.90;;;;;;5002815;28;20025;-80
2021/08/26 06:25:06;;;;;;;16.08;9.02;;;15.30;99.90;;;;;;5002771;28;20093;-82
2021/08/26 06:27:31;;;;;;;15.55;8.88;;;15.10;99.90;;;;;;5004150;28;20021;-79
2021/08/26 06:29:57;;;;;;;12.90;7.82;;;15.20;99.90;;;;;;4996887;28;20560;-80
2021/08/26 06:32:23;;;;;;;14.52;8.35;;;15.20;99.90;;;;;;5002881;28;20491;-80
2021/08/26 06:34:49;;;;;;;14.93;8.27;;;15.20;99.90;;;;;;5020299;28;20034;-79
2021/08/26 06:37:14;;;;;;;18.60;9.60;;;15.30;99.90;;;;;;5002895;28;20030;-79
2021/08/26 06:39:40;;;;;;;13.68;8.65;;;16.00;99.90;;;;;;5002646;28;20032;-79
2021/08/26 06:42:05;;;;;;;12.98;9.00;;;16.10;99.90;;;;;;5002785;28;20029;-78
2021/08/26 06:44:31;;;;;;;13.98;8.93;;;15.40;99.90;;;;;;5003016;28;20098;-76
2021/08/26 06:46:57;;;;;;;14.13;8.52;;;18.50;99.90;;;;;;5003400;28;20041;-80
2021/08/26 06:49:23;;;;;;;15.50;9.35;;;15.40;99.90;;;;;;4998260;28;20507;-81
2021/08/26 06:51:49;;;;;;;12.90;8.52;;;15.50;99.90;;;;;;4996234;28;20026;-81
2021/08/26 06:54:15;;;;;;;13.90;9.65;;;16.80;99.90;;;;;;5003573;28;20029;-80
2021/08/26 06:56:40;;;;;;;17.25;9.73;;;15.50;99.90;;;;;;5003168;28;20087;-80
2021/08/26 06:59:06;;;;;;;18.27;10.93;;;15.40;99.90;;;;;;5001857;28;20336;-81
2021/08/26 07:01:32;;;;;;;15.63;10.00;;;15.40;99.90;;;;;;5002519;28;20092;-79
2021/08/26 07:03:57;;;;;;;18.00;9.73;;;15.30;99.90;;;;;;4992986;28;20041;-79
2021/08/26 07:06:25;;;;;;;17.58;9.35;;;15.60;99.90;;;;;;5003097;28;20053;-80
2021/08/26 07:08:51;;;;;;;17.52;9.73;;;15.50;99.90;;;;;;5002769;28;20113;-81
2021/08/26 07:11:16;;;;;;;15.95;8.82;;;16.60;99.90;;;;;;5020076;28;20056;-81
2021/08/26 07:13:42;;;;;;;13.05;8.75;;;15.50;99.90;;;;;;5002259;28;20048;-83
2021/08/26 07:16:07;;;;;;;13.77;8.85;;;15.60;99.90;;;;;;5002127;28;20033;-82
2021/08/26 07:18:33;;;;;;;13.32;8.60;;;16.20;99.90;;;;;;5002376;28;20022;-83
2021/08/26 07:20:59;;;;;;;17.38;8.38;;;15.60;99.90;;;;;;4996488;28;20053;-78
2021/08/26 07:23:24;;;;;;;11.10;7.65;;;15.60;99.90;;;;;;5004063;28;20053;-81
2021/08/26 07:25:50;;;;;;;13.38;9.23;;;16.90;99.90;;;;;;5003925;28;20025;-80
2021/08/26 07:28:15;;;;;;;15.82;9.15;;;15.80;99.90;;;;;;5004425;28;20090;-83
2021/08/26 07:30:41;;;;;;;15.82;7.85;;;15.90;99.90;;;;;;5003742;28;20101;-80
2021/08/26 07:33:07;;;;;;;12.38;7.97;;;16.80;99.90;;;;;;5003547;28;20033;-80
2021/08/26 07:35:32;;;;;;;11.15;7.20;;;16.10;99.90;;;;;;5004005;28;20040;-84
2021/08/26 07:37:58;;;;;;;15.57;8.40;;;16.00;99.90;;;;;;5003513;28;20045;-78
2021/08/26 07:40:25;;;;;;;12.55;7.07;;;17.00;99.90;;;;;;5004085;28;20026;-79
2021/08/26 07:42:50;;;;;;;14.35;6.68;;;16.10;99.90;;;;;;5004499;28;20025;-82
2021/08/26 07:45:16;;;;;;;12.50;6.88;;;16.20;99.90;;;;;;5004493;28;20022;-83
2021/08/26 07:47:42;;;;;;;12.45;6.90;;;16.10;99.90;;;;;;5007146;28;20070;-80
2021/08/26 07:50:08;;;;;;;9.25;5.80;;;16.10;99.90;;;;;;5005475;28;20203;-77
2021/08/26 07:52:34;;;;;;;11.55;6.82;;;16.10;99.90;;;;;;4996411;28;20041;-81
2021/08/26 07:55:02;;;;;;;11.55;6.65;;;16.20;99.90;;;;;;5003065;28;20038;-84
2021/08/26 07:57:28;;;;;;;11.45;6.07;;;16.10;99.90;;;;;;5005543;28;20045;-81
2021/08/26 07:59:54;;;;;;;14.10;7.25;;;17.30;99.90;;;;;;5020411;28;20026;-77
2021/08/26 08:02:20;;;;;;;12.43;6.35;;;16.20;99.90;;;;;;5003034;28;20661;-80
2021/08/26 08:04:45;;;;;;;12.90;7.97;;;16.20;99.90;;;;;;5002447;28;20053;-81
2021/08/26 08:07:11;;;;;;;17.20;8.25;;;17.00;99.90;;;;;;5003129;28;20093;-81
2021/08/26 08:09:37;;;;;;;13.05;7.65;;;16.30;99.90;;;;;;5004363;28;20040;-83
2021/08/26 08:12:03;;;;;;;13.30;6.63;;;16.80;99.90;;;;;;5003436;28;20126;-80
2021/08/26 08:14:29;;;;;;;11.95;6.75;;;16.30;99.90;;;;;;5003303;28;20080;-83
2021/08/26 08:16:56;;;;;;;13.43;7.82;;;16.40;99.90;;;;;;5004180;28;20456;-83
2021/08/26 08:19:23;;;;;;;11.15;7.28;;;16.40;99.90;;;;;;5005139;28;20022;-80
2021/08/26 08:21:49;;;;;;;18.35;7.95;;;;;;;;;;5003859;28;20033;-83
2021/08/26 08:24:15;;;;;;;11.20;7.20;;;;;;;;;;5004268;28;20049;-81
2021/08/26 08:26:40;;;;;;;13.63;7.40;;;16.30;99.90;;;;;;5004058;28;20092;-85
2021/08/26 08:29:06;;;;;;;10.60;7.00;;;;;;;;;;5004665;28;20057;-80
2021/08/26 08:31:32;;;;;;;12.23;7.47;;;;;;;;;;5010983;28;20112;-79
2021/08/26 08:34:00;;;;;;;10.25;7.20;;;;;;;;;;5023687;28;20026;-83
2021/08/26 08:36:26;;;;;;;11.70;7.68;;;;;;;;;;5006920;28;20546;-84
2021/08/26 08:38:52;;;;;;;12.18;7.20;;;16.30;99.90;;;;;;5007336;28;20030;-84
2021/08/26 08:41:25;;;;;;;11.68;7.03;;;16.20;99.90;;;;;;5007986;28;20503;-79
2021/08/26 08:43:53;;;;;;;12.43;7.60;;;;;;;;;;4993250;28;20041;-83
2021/08/26 08:46:20;;;;;;;12.93;7.70;;;16.10;99.90;;;;;;5006807;28;20030;-84
2021/08/26 08:48:46;;;;;;;10.93;7.18;;;;;;;;;;5011193;28;20017;-84
2021/08/26 08:51:12;;;;;;;11.30;7.40;;;;;;;;;;5022692;28;20021;-83
2021/08/26 08:53:39;;;;;;;12.32;6.97;;;16.20;99.90;;;;;;5022676;28;20030;-85
2021/08/26 08:56:07;;;;;;;10.48;7.15;;;16.20;99.90;;;;;;5007478;28;20030;-84
2021/08/26 08:58:41;;;;;;;11.13;7.43;;;16.30;99.90;;;;;;5006523;28;20026;-83
2021/08/26 09:01:08;;;;;;;10.63;7.05;;;16.40;99.90;;;;;;5000664;28;20014;-83
2021/08/26 09:03:36;;;;;;;12.85;6.68;;;16.40;99.90;;;;;;5003389;28;20030;-85
2021/08/26 09:06:02;;;;;;;12.38;6.60;;;16.50;99.90;;;;;;5007179;28;20041;-86
2021/08/26 09:08:31;;;;;;;12.50;6.47;;;16.60;99.90;;;;;;5002488;28;20034;-86
2021/08/26 09:11:12;;;;;;;8.60;6.32;;;16.50;99.90;;;;;;5004231;28;20037;-83
2021/08/26 09:13:39;;;;;;;8.85;6.50;;;16.50;99.90;;;;;;5003367;28;20480;-83
2021/08/26 09:16:05;;;;;;;11.35;6.60;;;;;;;;;;5004511;28;20030;-84
2021/08/26 09:18:31;;;;;;;11.23;7.18;;;;;;;;;;5004361;28;20026;-86
2021/08/26 09:21:01;;;;;;;12.32;7.22;;;16.90;99.90;;;;;;5022296;28;20064;-83
2021/08/26 09:23:28;;;;;;;;;;;16.90;99.90;;;;;;5014510;28;20022;-86
2021/08/26 09:26:13;;;;;;;9.40;6.85;;;17.10;99.90;;;;;;5004657;28;19905;-85
2021/08/26 09:28:39;;;;;;;13.27;7.63;;;;;;;;;;4998543;28;20025;-82
2021/08/26 09:31:22;;;;;;;9.88;6.80;;;17.40;99.90;;;;;;5003761;28;20026;-85
2021/08/26 09:34:01;;;;;;;11.68;7.82;;;19.30;99.90;;;;;;5022339;28;20471;-82
2021/08/26 09:36:27;;;;;;;9.53;7.13;;;;;;;;;;5002775;28;20033;-86
2021/08/26 09:38:56;;;;;;;8.35;6.00;;;18.10;99.90;;;;;;5003853;28;20339;-85
2021/08/26 09:41:44;;;;;;;8.60;6.10;;;18.20;99.90;;;;;;5002433;28;20498;-85
2021/08/26 09:44:36;;;;;;;8.68;5.97;;;18.20;99.90;;;;;;5016240;28;20033;-84
2021/08/26 09:47:05;;;;;;;8.00;5.85;;;18.40;99.90;;;;;;4998953;28;20521;-83
2021/08/26 09:49:35;;;;;;;8.30;6.25;;;18.20;99.90;;;;;;5006276;28;20053;-85
2021/08/26 09:52:03;;;;;;;;;;;19.00;99.90;;;;;;5001517;28;20037;-84
2021/08/26 09:54:35;;;;;;;9.52;4.85;;;18.10;99.90;;;;;;5002137;28;19909;-81
2021/08/26 09:57:01;;;;;;;5.28;3.97;;;18.10;99.90;;;;;;5013278;28;20126;-80
2021/08/26 09:59:47;;;;;;;6.38;3.67;;;18.20;99.90;;;;;;5005208;28;20484;-85
2021/08/26 10:02:14;;;;;;;5.00;3.50;;;;;;;;;;5000682;28;20023;-84
2021/08/26 10:04:42;;;;;;;4.13;2.10;;;18.70;99.90;;;;;;4994146;28;20037;-84
2021/08/26 10:07:10;;;;;;;3.20;2.28;;;19.10;99.90;;;;;;5004245;28;20069;-81
2021/08/26 10:09:41;;;;;;;3.15;2.20;;;19.20;99.90;;;;;;5003996;28;20487;-84
2021/08/26 10:12:12;;;;;;;4.30;2.60;;;19.10;99.90;;;;;;5003716;28;20034;-84
2021/08/26 10:14:56;;;;;;;3.30;2.33;;;18.90;99.90;;;;;;5013242;28;20502;-83
2021/08/26 10:17:22;;;;;;;4.30;2.30;;;;;;;;;;5016957;28;20022;-83
2021/08/26 10:19:50;;;;;;;3.10;2.00;;;18.60;99.90;;;;;;4993103;28;20507;-81
2021/08/26 10:22:16;;;;;;;4.25;2.22;;;;;;;;;;5003419;28;20033;-84
2021/08/26 10:24:42;;;;;;;3.40;1.90;;;;;;;;;;5003631;28;20022;-81
2021/08/26 10:27:13;;;;;;;5.07;3.03;;;18.30;99.90;;;;;;5003282;28;20030;-81
2021/08/26 10:29:47;;;;;;;6.70;2.78;;;18.50;99.90;;;;;;5003433;28;20093;-81
2021/08/26 10:32:19;;;;;;;6.60;2.55;;;18.90;99.90;;;;;;5002620;28;20026;-81
2021/08/26 10:35:03;;;;;;;3.70;2.00;;;19.40;99.90;;;;;;5012302;28;20046;-86
2021/08/26 10:37:29;;;;;;;4.20;2.00;;;;;;;;;;5024984;28;20026;-83
2021/08/26 10:39:56;;;;;;;3.42;1.90;;;;;;;;;;5002014;28;20029;-82
2021/08/26 10:42:28;;;;;;;3.58;1.75;;;20.10;96.30;;;;;;5002941;28;20029;-81
2021/08/26 10:45:10;;;;;;;5.20;2.67;;;20.20;94.70;;;;;;5019050;28;20065;-82
2021/08/26 10:47:48;;;;;;;5.88;2.60;;;20.30;94.50;;;;;;5006197;28;20113;-83
2021/08/26 10:50:26;;;;;;;11.05;5.13;;;20.50;94.20;;;;;;5019225;28;20439;-82
2021/08/26 10:53:04;;;;;;;4.00;2.20;;;20.80;93.10;;;;;;5002435;28;20137;-83
2021/08/26 10:55:39;;;;;;;11.00;4.45;;;21.00;92.90;;;;;;4994880;28;20117;-84
2021/08/26 10:58:26;;;;;;;12.27;5.22;;;21.20;91.60;;;;;;5002883;28;20031;-81
2021/08/26 11:01:04;;;;;;;11.10;4.45;;;21.10;91.10;;;;;;5019922;28;20022;-83
2021/08/26 11:03:36;;;;;;;3.90;1.92;;;20.80;90.40;;;;;;5002971;28;20025;-84
2021/08/26 11:06:24;;;;;;;5.38;2.53;;;20.70;90.90;;;;;;5018172;28;20029;-83
2021/08/26 11:08:52;;;;;;;3.90;1.95;;;20.60;91.00;;;;;;5003096;28;20101;-82
2021/08/26 11:11:27;;;;;;;15.98;9.98;;;20.50;90.30;;;;;;5021179;28;20044;-84
2021/08/26 11:13:58;;;;;;;3.85;2.10;;;20.50;89.80;;;;;;5018646;28;20030;-84
2021/08/26 11:16:27;;;;;;;5.35;2.20;;;20.60;88.70;;;;;;5029616;28;20077;-80
2021/08/26 11:19:12;;;;;;;6.43;2.40;;;20.80;86.20;;;;;;5004105;28;20046;-84
2021/08/26 11:21:46;;;;;;;9.07;3.72;;;21.30;86.90;;;;;;5014782;28;20026;-81
2021/08/26 11:24:12;;;;;;;6.00;3.10;;;;;;;;;;4999926;28;20053;-82
2021/08/26 11:26:51;;;;;;;6.25;2.17;;;20.90;85.30;;;;;;5001306;28;20113;-84
2021/08/26 11:29:25;;;;;;;4.45;1.95;;;21.00;85.70;;;;;;4992912;28;20476;-82
2021/08/26 11:31:54;;;;;;;3.60;2.17;;;21.20;86.00;;;;;;5017513;28;20519;-81
2021/08/26 11:34:37;;;;;;;6.55;2.75;;;21.00;83.70;;;;;;5003801;28;20026;-81
2021/08/26 11:37:26;;;;;;;8.55;2.40;;;21.30;83.60;;;;;;5002144;28;20025;-82
2021/08/26 11:39:57;;;;;;;5.25;2.38;;;21.40;82.20;;;;;;5014376;28;20156;-82
2021/08/26 11:42:32;;;;;;;5.70;2.13;;;21.50;81.10;;;;;;5017687;28;20025;-81
2021/08/26 11:45:13;;;;;;;5.00;2.00;;;21.60;79.50;;;;;;5008710;28;20423;-79
2021/08/26 11:47:42;;;;;;;4.45;2.00;;;21.80;78.50;;;;;;5000369;28;20028;-81
2021/08/26 11:50:20;;;;;;;5.30;2.45;;;21.80;77.70;;;;;;5002473;28;20026;-79
2021/08/26 11:52:55;;;;;;;5.63;2.20;;;21.80;77.50;;;;;;4999798;28;20034;-81
2021/08/26 11:55:22;;;;;;;3.78;2.17;;;21.90;77.90;;;;;;5016462;28;20037;-80
2021/08/26 11:57:54;;;;;;;4.72;2.20;;;22.00;76.70;;;;;;5011609;28;20048;-79
2021/08/26 12:00:20;;;;;;;6.25;2.30;;;;;;;;;;5002202;28;20060;-82
2021/08/26 12:02:53;;;;;;;4.82;2.30;;;22.10;74.80;;;;;;4993235;28;20018;-80
2021/08/26 12:05:19;;;;;;;5.22;2.22;;;;;;;;;;5008998;28;20399;-84
2021/08/26 12:07:47;;;;;;;5.78;2.20;;;22.60;72.00;;;;;;4992774;28;20135;-82
2021/08/26 12:10:22;;;;;;;5.63;2.55;;;22.80;71.80;;;;;;4999405;28;20026;-82
2021/08/26 12:13:06;;;;;;;3.67;1.83;;;23.00;70.20;;;;;;5002509;28;20435;-82
2021/08/26 12:15:32;;;;;;;5.35;2.30;;;;;;;;;;5002399;28;20026;-82
2021/08/26 12:18:12;;;;;;;12.43;5.78;;;23.00;70.20;;;;;;4999393;28;20086;-82
2021/08/26 12:20:46;;;;;;;7.22;3.60;;;21.40;69.80;;;;;;4998636;28;20077;-82
2021/08/26 12:23:17;;;;;;;5.88;2.58;;;22.90;69.80;;;;;;5003178;28;20045;-81
2021/08/26 12:25:43;;;;;;;7.63;3.38;;;;;;;;;;5003086;28;20057;-80
2021/08/26 12:28:11;;;;;;;5.25;2.22;;;22.90;69.50;;;;;;5003352;28;20120;-81
2021/08/26 12:30:42;;;;;;;9.98;4.63;;;23.10;70.20;;;;;;4999828;28;20045;-82
2021/08/26 12:33:16;;;;;;;5.80;2.40;;;23.20;71.60;;;;;;4984150;28;20030;-80
2021/08/26 12:35:59;;;;;;;6.72;1.92;;;23.20;67.30;;;;;;5003747;28;20076;-80
2021/08/26 12:38:34;;;;;;;5.13;2.17;;;23.50;66.20;;;;;;5003547;28;20029;-82
2021/08/26 12:41:04;;;;;;;5.07;2.10;;;23.70;65.80;;;;;;4999889;28;20038;-82
2021/08/26 12:43:43;;;;;;;3.85;2.03;;;23.70;66.90;;;;;;5009375;28;20427;-81
2021/08/26 12:46:16;;;;;;;4.78;2.38;;;23.80;64.40;;;;;;5003410;28;20124;-82
2021/08/26 12:48:42;;;;;;;6.10;2.13;;;23.70;66.60;;;;;;5004124;28;20029;-80
2021/08/26 12:51:14;;;;;;;3.90;1.55;;;23.50;64.10;;;;;;5004793;28;20029;-80
2021/08/26 12:53:49;;;;;;;4.57;2.03;;;23.20;64.90;;;;;;5003945;28;20030;-79
2021/08/26 12:56:20;;;;;;;4.43;2.25;;;22.90;65.50;;;;;;4993681;28;20559;-83
2021/08/26 12:59:12;;;;;;;7.10;2.40;;;21.80;66.40;;;;;;5003098;28;20053;-82